Time;durP1;ratioP1;P1;durP2;ratioP2;P2;SDS_P1;SDS_P2;PMS_P1;PMS_P2;Temp;Humidity;BMP_temperature;BMP_pressure;BME280_temperature;BME280_humidity;BME280_pressure;Samples;Min_cycle;Max_cycle;Signal;HPM_P1;HPM_P2
2023/11/24 00:01:51;;;;;;;18.60;11.60;;;;;;;-147.86;100.00;48621.91;105858;1256;71601;-41
2023/11/24 00:04:18;;;;;;;25.60;12.00;;;;;;;-147.86;100.00;48619.95;105871;1257;60343;-43
2023/11/24 00:06:45;;;;;;;24.70;12.60;;;;;;;-147.86;100.00;48608.57;105847;1253;60453;-42
2023/11/24 00:09:12;;;;;;;22.40;11.90;;;;;;;-147.86;100.00;48623.48;105912;1253;73682;-43
2023/11/24 00:11:41;;;;;;;18.10;11.20;;;;;;;-147.86;100.00;48618.77;105885;1253;65509;-39
2023/11/24 00:14:08;;;;;;;22.90;12.70;;;;;;;-147.86;100.00;48598.77;105949;1253;71405;-42
2023/11/24 00:16:38;;;;;;;18.70;11.30;;;;;;;-147.86;100.00;48611.32;105859;1253;61184;-43
2023/11/24 00:19:07;;;;;;;21.00;11.30;;;;;;;-147.86;100.00;48596.81;105883;1252;60447;-41
2023/11/24 00:21:34;;;;;;;20.20;10.20;;;;;;;-147.86;100.00;48590.54;105880;1256;73690;-44
2023/11/24 00:24:04;;;;;;;19.60;11.30;;;;;;;-147.86;100.00;48581.13;105889;1257;65383;-43
2023/11/24 00:26:31;;;;;;;17.70;10.50;;;;;;;-147.86;100.00;48590.14;105833;1253;72594;-43
2023/11/24 00:29:00;;;;;;;17.90;10.40;;;;;;;-147.86;100.00;48582.69;105883;1253;60419;-41
2023/11/24 00:31:29;;;;;;;21.70;11.40;;;;;;;-147.86;100.00;48572.11;105857;1253;60402;-44
2023/11/24 00:33:56;;;;;;;17.40;10.80;;;;;;;-147.86;100.00;48601.13;105907;1253;72783;-42
2023/11/24 00:36:23;;;;;;;21.00;11.70;;;;;;;-147.86;100.00;48585.83;105708;1257;65534;-44
2023/11/24 00:38:50;;;;;;;17.10;9.80;;;;;;;-147.86;100.00;48597.59;105897;1253;72539;-41
2023/11/24 00:41:18;;;;;;;16.30;10.70;;;;;;;-147.86;100.00;48605.04;105729;1257;61101;-42
2023/11/24 00:43:48;;;;;;;16.50;10.50;;;;;;;-147.86;100.00;48634.45;105919;1257;61032;-44
2023/11/24 00:46:17;;;;;;;20.40;11.00;;;;;;;-147.86;100.00;48629.35;105727;1253;73855;-43
2023/11/24 00:48:44;;;;;;;17.00;10.50;;;;;;;-147.86;100.00;48622.30;105871;1257;64261;-44
2023/11/24 00:51:11;;;;;;;17.90;10.80;;;;;;;-147.86;100.00;48615.24;105654;1253;72626;-42
2023/11/24 00:53:38;;;;;;;18.30;10.60;;;;;;;-147.86;100.00;48621.91;105906;1252;61043;-44
2023/11/24 00:56:06;;;;;;;18.40;10.80;;;;;;;-147.86;100.00;48628.57;105867;1253;60546;-45
2023/11/24 00:58:33;;;;;;;17.40;10.60;;;;;;;-147.86;100.00;48635.24;105880;1254;73783;-44
2023/11/24 01:01:00;;;;;;;18.30;10.50;;;;;;;-147.86;100.00;48624.26;105808;1256;65509;-45
2023/11/24 01:03:29;;;;;;;17.30;10.20;;;;;;;-147.86;100.00;48645.04;105882;1253;72451;-45
2023/11/24 01:05:56;;;;;;;15.20;10.10;;;;;;;-147.86;100.00;48630.93;105885;1257;60432;-44
2023/11/24 01:08:22;;;;;;;21.30;11.40;;;;;;;-147.86;100.00;48645.04;105935;1252;60438;-42
2023/11/24 01:10:52;;;;;;;16.50;9.40;;;;;;;-147.86;100.00;48639.55;105885;1253;73828;-42
2023/11/24 01:13:19;;;;;;;16.40;10.40;;;;;;;-147.86;100.00;48635.63;105718;1257;64446;-44
2023/11/24 01:15:46;;;;;;;16.20;9.30;;;;;;;-147.86;100.00;48632.88;105883;1253;72740;-41
2023/11/24 01:18:14;;;;;;;17.10;10.40;;;;;;;-147.86;100.00;48635.23;105928;1256;60435;-46
2023/11/24 01:20:41;;;;;;;19.70;10.80;;;;;;;-147.86;100.00;48647.79;105864;1253;60413;-45
2023/11/24 01:23:08;;;;;;;19.60;10.30;;;;;;;-147.86;100.00;48644.26;105899;1253;72805;-43
2023/11/24 01:25:35;;;;;;;14.70;9.70;;;;;;;-147.86;100.00;48630.14;105867;1253;65445;-44
2023/11/24 01:28:03;;;;;;;16.20;8.70;;;;;;;-147.86;100.00;48630.53;105897;1253;72626;-45
2023/11/24 01:30:31;;;;;;;17.60;9.80;;;;;;;-147.86;100.00;48619.95;105808;1257;60590;-42
2023/11/24 01:33:00;;;;;;;15.40;9.20;;;;;;;-147.86;100.00;48620.73;105888;1253;60425;-43
2023/11/24 01:35:28;;;;;;;14.10;8.50;;;;;;;-147.86;100.00;48609.75;105851;1253;73643;-41
2023/11/24 01:37:55;;;;;;;17.70;10.50;;;;;;;-147.86;100.00;48595.63;105929;1253;65536;-47
2023/11/24 01:40:22;;;;;;;17.60;9.20;;;;;;;-147.86;100.00;48595.24;105869;1253;72530;-46
2023/11/24 01:42:49;;;;;;;14.20;9.20;;;;;;;-147.86;100.00;48560.34;105885;1257;60351;-42
2023/11/24 01:45:17;;;;;;;14.80;9.50;;;;;;;-147.86;100.00;48559.95;105836;1253;60470;-47
2023/11/24 01:47:46;;;;;;;13.40;7.60;;;;;;;-147.86;100.00;48557.99;105864;1252;73819;-44
2023/11/24 01:50:13;;;;;;;14.50;9.00;;;;;;;-147.86;100.00;48571.32;105844;1257;65451;-43
2023/11/24 01:52:41;;;;;;;15.00;8.80;;;;;;;-147.86;100.00;48550.54;105891;1253;72537;-44
2023/11/24 01:55:12;;;;;;;16.20;9.40;;;;;;;-147.86;100.00;48544.66;105877;1257;60432;-44
2023/11/24 01:57:41;;;;;;;14.20;9.50;;;;;;;-147.86;100.00;48562.30;105930;1253;60447;-46
2023/11/24 02:00:13;;;;;;;14.50;8.90;;;;;;;-147.86;100.00;48547.40;105913;1257;73405;-46
2023/11/24 02:02:41;;;;;;;18.10;9.40;;;;;;;-147.86;100.00;48553.68;105771;1257;65312;-42
2023/11/24 02:05:09;;;;;;;15.50;8.90;;;;;;;-147.86;100.00;48544.26;105719;1253;71228;-45
2023/11/24 02:07:36;;;;;;;14.40;8.70;;;;;;;-147.86;100.00;48533.68;105920;1257;60516;-45
2023/11/24 02:10:03;;;;;;;19.80;8.50;;;;;;;-147.86;100.00;48539.55;105732;1253;60458;-46
2023/11/24 02:12:31;;;;;;;13.10;8.40;;;;;;;-147.86;100.00;48525.05;105900;1253;72772;-43
2023/11/24 02:14:58;;;;;;;12.20;8.50;;;;;;;-147.86;100.00;48525.84;105828;1257;65764;-43
2023/11/24 02:17:25;;;;;;;14.30;8.80;;;;;;;-147.86;100.00;48527.80;105834;1253;72616;-42
2023/11/24 02:19:56;;;;;;;16.30;8.60;;;;;;;-147.86;100.00;48539.56;105868;1253;61028;-41
2023/11/24 02:22:25;;;;;;;11.80;8.00;;;;;;;-147.86;100.00;48523.48;105754;1253;60492;-44
2023/11/24 02:24:52;;;;;;;14.40;8.80;;;;;;;-147.86;100.00;48525.84;105869;1253;72708;-45
2023/11/24 02:27:20;;;;;;;12.90;8.10;;;;;;;-147.86;100.00;48534.85;105695;1259;65535;-43
2023/11/24 02:29:50;;;;;;;11.50;7.40;;;;;;;-147.86;100.00;48530.93;105838;1253;72545;-41
2023/11/24 02:32:18;;;;;;;14.30;8.60;;;;;;;-147.86;100.00;48509.76;105722;1257;61070;-45
2023/11/24 02:34:45;;;;;;;12.60;8.30;;;;;;;-147.86;100.00;48512.51;105896;1252;60399;-47
2023/11/24 02:37:12;;;;;;;15.00;7.90;;;;;;;-147.86;100.00;48511.33;105881;1254;72860;-46
2023/11/24 02:39:39;;;;;;;11.20;7.90;;;;;;;-147.86;100.00;48493.68;105836;1256;65388;-45
2023/11/24 02:42:06;;;;;;;15.90;7.60;;;;;;;-147.86;100.00;48483.49;105866;1253;72529;-42
2023/11/24 02:44:33;;;;;;;11.50;7.70;;;;;;;-147.86;100.00;48493.68;105840;1256;60921;-43
2023/11/24 02:47:00;;;;;;;17.00;7.70;;;;;;;-147.86;100.00;48474.87;105846;1253;60524;-44
2023/11/24 02:49:32;;;;;;;13.50;7.00;;;;;;;-147.86;100.00;48481.53;105894;1256;73688;-44
2023/11/24 02:51:59;;;;;;;11.00;6.70;;;;;;;-147.86;100.00;48496.43;105682;1257;64141;-42
2023/11/24 02:54:26;;;;;;;10.20;7.60;;;;;;;-147.86;100.00;48459.97;105878;1253;72830;-43
2023/11/24 02:56:53;;;;;;;14.60;7.50;;;;;;;-147.86;100.00;48448.98;105735;1257;60619;-43
2023/11/24 02:59:20;;;;;;;11.20;7.00;;;;;;;-147.86;100.00;48453.69;105924;1253;61870;-41
2023/11/24 03:01:47;;;;;;;11.30;6.90;;;;;;;-147.86;100.00;48451.34;105851;1253;73777;-44
2023/11/24 03:04:14;;;;;;;9.70;6.90;;;;;;;-147.86;100.00;48431.34;105856;1253;65458;-44
2023/11/24 03:06:42;;;;;;;8.20;5.30;;;;;;;-147.86;100.00;48420.37;105823;1253;72722;-40
2023/11/24 03:09:09;;;;;;;10.20;6.50;;;;;;;-147.86;100.00;48429.38;105799;1256;60781;-46
2023/11/24 03:11:38;;;;;;;14.90;6.30;;;;;;;-147.86;100.00;48415.27;105591;1253;60645;-43
2023/11/24 03:14:04;;;;;;;10.00;6.30;;;;;;;-147.86;100.00;48416.44;105594;1257;73509;-45
2023/11/24 03:16:32;;;;;;;9.10;6.40;;;;;;;-147.86;100.00;48403.50;105731;1257;65430;-46
2023/11/24 03:18:59;;;;;;;10.80;6.80;;;;;;;-147.86;100.00;48396.45;105888;1253;72310;-48
2023/11/24 03:21:27;;;;;;;12.00;6.50;;;;;;;-147.86;100.00;48398.80;105892;1257;61198;-43
2023/11/24 03:23:55;;;;;;;11.90;6.90;;;;;;;-147.86;100.00;48392.52;105885;1253;60335;-48
2023/11/24 03:26:22;;;;;;;8.90;6.30;;;;;;;-147.86;100.00;48401.15;105923;1254;73795;-48
2023/11/24 03:28:49;;;;;;;10.10;6.30;;;;;;;-147.86;100.00;48398.79;105822;1257;65354;-43
2023/11/24 03:31:16;;;;;;;9.90;6.00;;;;;;;-147.86;100.00;48405.07;105919;1253;72489;-46
2023/11/24 03:33:42;;;;;;;8.40;5.50;;;;;;;-147.86;100.00;48397.23;105848;1257;61159;-42
2023/11/24 03:36:10;;;;;;;7.80;5.60;;;;;;;-147.86;100.00;48410.17;105913;1253;60556;-46
2023/11/24 03:38:38;;;;;;;15.50;6.20;;;;;;;-147.86;100.00;48383.12;105865;1257;73766;-40
2023/11/24 03:41:05;;;;;;;8.70;5.30;;;;;;;-147.86;100.00;48381.94;105878;1257;65484;-44
2023/11/24 03:43:32;;;;;;;8.20;5.90;;;;;;;-147.86;100.00;48414.88;105859;1253;72488;-43
2023/11/24 03:45:59;;;;;;;10.40;5.50;;;;;;;-147.86;100.00;48396.84;105911;1257;60378;-43
2023/11/24 03:48:30;;;;;;;8.20;5.90;;;;;;;-147.86;100.00;48399.19;105929;1253;60417;-45
2023/11/24 03:50:58;;;;;;;6.90;5.50;;;;;;;-147.86;100.00;48391.74;105869;1258;73548;-46
2023/11/24 03:53:25;;;;;;;6.80;4.80;;;;;;;-147.86;100.00;48400.76;105887;1257;65457;-46
2023/11/24 03:55:52;;;;;;;7.70;5.20;;;;;;;-147.86;100.00;48382.73;105850;1253;72569;-45
2023/11/24 03:58:19;;;;;;;9.60;5.90;;;;;;;-147.86;100.00;48388.21;105872;1257;60431;-45
2023/11/24 04:00:46;;;;;;;7.30;5.50;;;;;;;-147.86;100.00;48394.09;105839;1253;60522;-44
2023/11/24 04:03:13;;;;;;;6.40;4.90;;;;;;;-147.86;100.00;48389.38;105852;1253;73932;-45
2023/11/24 04:05:40;;;;;;;5.90;4.00;;;;;;;-147.86;100.00;48368.22;105860;1256;65416;-44
2023/11/24 04:08:08;;;;;;;6.10;4.50;;;;;;;-147.86;100.00;48371.74;105883;1253;72602;-45
2023/11/24 04:10:36;;;;;;;6.10;4.70;;;;;;;-147.86;100.00;48367.43;105881;1259;60513;-45
2023/11/24 04:13:03;;;;;;;7.10;4.30;;;;;;;-147.86;100.00;48380.76;105874;1257;60461;-42
2023/11/24 04:15:31;;;;;;;6.00;4.90;;;;;;;-147.86;100.00;48361.16;105876;1256;73788;-44
2023/11/24 04:17:58;;;;;;;6.50;4.10;;;;;;;-147.86;100.00;48383.51;105885;1256;65133;-43
2023/11/24 04:20:25;;;;;;;4.90;3.40;;;;;;;-147.86;100.00;48341.55;105876;1253;72609;-44
2023/11/24 04:22:52;;;;;;;9.70;3.90;;;;;;;-147.86;100.00;48332.54;105859;1257;61087;-44
2023/11/24 04:25:19;;;;;;;6.60;4.60;;;;;;;-147.86;100.00;48360.76;105895;1253;60556;-44
2023/11/24 04:27:46;;;;;;;4.90;3.90;;;;;;;-147.86;100.00;48362.34;105890;1257;73532;-41
2023/11/24 04:30:13;;;;;;;6.20;4.00;;;;;;;-147.86;100.00;48375.27;105903;1257;65485;-43
2023/11/24 04:32:41;;;;;;;7.00;4.30;;;;;;;-147.86;100.00;48367.43;105923;1256;71636;-45
2023/11/24 04:35:08;;;;;;;7.70;3.40;;;;;;;-147.86;100.00;48354.10;105860;1258;61206;-41
2023/11/24 04:37:35;;;;;;;10.40;3.50;;;;;;;-147.86;100.00;48365.47;105912;1253;60598;-45
2023/11/24 04:40:03;;;;;;;11.70;4.00;;;;;;;-147.86;100.00;48359.98;105830;1254;73686;-45
2023/11/24 04:42:32;;;;;;;8.10;4.30;;;;;;;-147.86;100.00;48347.43;105899;1253;64257;-41
2023/11/24 04:44:59;;;;;;;9.50;3.50;;;;;;;-147.86;100.00;48347.43;105801;1253;72661;-41
2023/11/24 04:47:26;;;;;;;4.80;3.10;;;;;;;-147.86;100.00;48365.08;105898;1257;60406;-44
2023/11/24 04:49:53;;;;;;;4.70;3.80;;;;;;;-147.86;100.00;48365.86;105875;1253;60466;-42
2023/11/24 04:52:20;;;;;;;11.00;3.70;;;;;;;-147.86;100.00;48373.31;105865;1257;73833;-44
2023/11/24 04:54:47;;;;;;;3.70;3.10;;;;;;;-147.86;100.00;48365.08;105906;1257;65392;-42
2023/11/24 04:57:14;;;;;;;3.40;3.10;;;;;;;-147.86;100.00;48364.29;105833;1253;73214;-41
2023/11/24 04:59:41;;;;;;;3.60;3.30;;;;;;;-147.86;100.00;48365.87;105907;1258;60342;-41
2023/11/24 05:02:10;;;;;;;6.50;3.90;;;;;;;-147.86;100.00;48352.92;105834;1253;60420;-43
2023/11/24 05:04:37;;;;;;;4.10;3.60;;;;;;;-147.86;100.00;48373.31;105894;1253;73782;-42
2023/11/24 05:07:04;;;;;;;3.40;3.00;;;;;;;-147.86;100.00;48360.76;105883;1259;65463;-43
2023/11/24 05:09:31;;;;;;;3.60;2.70;;;;;;;-147.86;100.00;48379.98;105847;1253;72590;-45
2023/11/24 05:11:59;;;;;;;3.40;2.80;;;;;;;-147.86;100.00;48369.00;105855;1257;60401;-45
2023/11/24 05:14:25;;;;;;;3.70;3.30;;;;;;;-147.86;100.00;48369.39;105862;1253;60696;-46
2023/11/24 05:16:52;;;;;;;4.40;3.10;;;;;;;-147.86;100.00;48367.04;105909;1253;73733;-42
2023/11/24 05:19:19;;;;;;;8.40;3.00;;;;;;;-147.86;100.00;48362.34;105871;1259;65537;-46
2023/11/24 05:21:46;;;;;;;3.10;2.80;;;;;;;-147.86;100.00;48369.79;105906;1253;72487;-44
2023/11/24 05:24:13;;;;;;;3.00;2.80;;;;;;;-147.86;100.00;48376.84;105829;1257;60597;-44
2023/11/24 05:26:40;;;;;;;4.40;2.80;;;;;;;-147.86;100.00;48359.20;105858;1253;60530;-42
2023/11/24 05:29:10;;;;;;;18.10;2.90;;;;;;;-147.86;100.00;48401.93;105863;1252;73857;-41
2023/11/24 05:31:37;;;;;;;4.80;3.00;;;;;;;-147.86;100.00;48371.75;105893;1258;65256;-44
2023/11/24 05:34:03;;;;;;;4.10;3.30;;;;;;;-147.86;100.00;48359.59;105870;1253;72606;-46
2023/11/24 05:36:33;;;;;;;5.20;3.30;;;;;;;-147.86;100.00;48376.05;105876;1257;60931;-46
2023/11/24 05:39:00;;;;;;;3.80;3.30;;;;;;;-147.86;100.00;48365.47;105891;1256;60420;-45
2023/11/24 05:41:27;;;;;;;4.20;3.10;;;;;;;-147.86;100.00;48372.52;105876;1253;73728;-42
2023/11/24 05:43:54;;;;;;;8.30;3.60;;;;;;;-147.86;100.00;48365.07;105848;1258;64357;-45
2023/11/24 05:46:23;;;;;;;4.10;3.70;;;;;;;-147.86;100.00;48372.14;105863;1253;71455;-41
2023/11/24 05:48:50;;;;;;;4.90;3.60;;;;;;;-147.86;100.00;48363.51;105831;1256;60345;-43
2023/11/24 05:51:17;;;;;;;7.40;3.40;;;;;;;-147.86;100.00;48375.66;105851;1253;60538;-45
2023/11/24 05:53:44;;;;;;;6.10;2.80;;;;;;;-147.86;100.00;48378.02;105793;1258;73668;-44
2023/11/24 05:56:11;;;;;;;3.20;3.00;;;;;;;-147.86;100.00;48359.98;105874;1257;65252;-44
2023/11/24 05:58:38;;;;;;;5.40;3.20;;;;;;;-147.86;100.00;48379.20;105872;1256;72478;-45
2023/11/24 06:01:07;;;;;;;5.20;3.30;;;;;;;-147.86;100.00;48377.23;105908;1257;60361;-41
2023/11/24 06:03:34;;;;;;;3.40;2.90;;;;;;;-147.86;100.00;48373.70;105952;1253;60412;-44
2023/11/24 06:06:01;;;;;;;3.30;2.80;;;;;;;-147.86;100.00;48370.57;105853;1258;73678;-46
2023/11/24 06:08:30;;;;;;;18.70;3.10;;;;;;;-147.86;100.00;48391.35;105866;1257;65377;-41
2023/11/24 06:10:57;;;;;;;4.00;2.90;;;;;;;-147.86;100.00;48374.88;105819;1253;72634;-44
2023/11/24 06:13:24;;;;;;;3.40;3.10;;;;;;;-147.86;100.00;48395.66;105880;1258;60454;-45
2023/11/24 06:15:51;;;;;;;4.40;3.10;;;;;;;-147.86;100.00;48390.57;105865;1253;60546;-45
2023/11/24 06:18:18;;;;;;;4.90;3.40;;;;;;;-147.86;100.00;48400.76;105909;1253;72434;-46
2023/11/24 06:20:46;;;;;;;3.40;3.10;;;;;;;-147.86;100.00;48399.98;105886;1257;64312;-44
2023/11/24 06:23:13;;;;;;;7.40;3.40;;;;;;;-147.86;100.00;48393.30;105903;1253;73154;-42
2023/11/24 06:25:45;;;;;;;4.90;3.60;;;;;;;-147.86;100.00;48407.43;105848;1258;61049;-47
2023/11/24 06:28:12;;;;;;;3.70;3.00;;;;;;;-147.86;100.00;48414.48;105810;1253;60726;-45
2023/11/24 06:30:42;;;;;;;4.40;3.50;;;;;;;-147.86;100.00;48408.99;105862;1254;73803;-44
2023/11/24 06:33:09;;;;;;;4.30;3.50;;;;;;;-147.86;100.00;48416.05;105795;1257;65488;-44
2023/11/24 06:35:38;;;;;;;7.40;3.60;;;;;;;-147.86;100.00;48416.44;105896;1258;72585;-44
2023/11/24 06:38:04;;;;;;;4.00;3.10;;;;;;;-147.86;100.00;48423.89;105875;1257;61030;-45
2023/11/24 06:40:31;;;;;;;4.30;3.00;;;;;;;-147.86;100.00;48447.81;105881;1253;60480;-44
2023/11/24 06:42:58;;;;;;;3.90;3.50;;;;;;;-147.86;100.00;48426.24;105596;1257;339425;-42
2023/11/24 06:46:42;;;;;;;3.40;3.10;;;;;;;-147.86;100.00;48444.28;102734;1294;600698;-43
2023/11/24 06:49:11;;;;;;;7.90;3.60;;;;;;;-147.86;100.00;48459.97;104843;1267;59145;-42
2023/11/24 06:51:40;;;;;;;5.80;3.40;;;;;;;-147.86;100.00;48472.91;104852;1269;59312;-45
2023/11/24 06:54:08;;;;;;;6.80;3.00;;;;;;;-147.86;100.00;48495.26;104838;1267;70989;-41
2023/11/24 06:56:36;;;;;;;34.20;4.60;;;;;;;-147.86;100.00;48491.73;104872;1269;63920;-45
2023/11/24 06:59:04;;;;;;;4.20;3.10;;;;;;;-147.86;100.00;48481.92;104794;1272;72609;-45
2023/11/24 07:01:32;;;;;;;3.70;3.40;;;;;;;-147.86;100.00;48507.41;104970;1264;230035;-44
2023/11/24 07:04:01;;;;;;;3.40;3.10;;;;;;;-147.86;100.00;48513.29;105137;1269;59323;-45
2023/11/24 07:06:29;;;;;;;6.30;3.50;;;;;;;-147.86;100.00;48511.72;105143;1263;70980;-42
2023/11/24 07:08:58;;;;;;;7.50;4.10;;;;;;;-147.86;100.00;48500.35;105198;1264;64048;-47
2023/11/24 07:11:26;;;;;;;30.40;4.20;;;;;;;-147.86;100.00;48504.66;105164;1264;71425;-47
2023/11/24 07:13:54;;;;;;;24.60;4.50;;;;;;;-147.86;100.00;48497.61;105115;1264;59695;-47
2023/11/24 07:16:22;;;;;;;4.20;2.90;;;;;;;-147.86;100.00;48499.96;105154;1268;59541;-44
2023/11/24 07:18:50;;;;;;;15.20;3.30;;;;;;;-147.86;100.00;48501.53;105136;1264;73013;-42
2023/11/24 07:21:19;;;;;;;35.90;5.30;;;;;;;-147.86;100.00;48484.27;104872;1264;64081;-42
2023/11/24 07:23:47;;;;;;;24.00;4.60;;;;;;;-147.86;100.00;48470.95;104853;1270;70860;-44
2023/11/24 07:26:18;;;;;;;5.60;3.40;;;;;;;-147.86;100.00;48475.26;104852;1270;59736;-45
2023/11/24 07:28:45;;;;;;;34.00;4.70;;;;;;;-147.86;100.00;48467.41;104876;1270;59636;-44
2023/11/24 07:31:17;;;;;;;22.90;6.70;;;;;;;-147.86;100.00;48479.18;104872;1270;73046;-45
2023/11/24 07:33:48;;;;;;;3.50;3.20;;;;;;;-147.86;100.00;48487.02;104849;1266;63919;-43
2023/11/24 07:36:20;;;;;;;4.90;3.10;;;;;;;-147.86;100.00;48486.63;104856;1267;71471;-47
2023/11/24 07:38:48;;;;;;;36.00;4.30;;;;;;;-147.86;100.00;48474.87;105006;1267;59765;-46
2023/11/24 07:41:16;;;;;;;13.40;4.00;;;;;;;-147.86;100.00;48488.20;104848;1270;59720;-46
2023/11/24 07:43:44;;;;;;;22.60;4.60;;;;;;;-147.86;100.00;48483.49;104873;1270;71864;-46
2023/11/24 07:46:11;;;;;;;9.60;4.10;;;;;;;-147.86;100.00;48488.98;105145;1263;63930;-47
2023/11/24 07:48:43;;;;;;;8.60;3.50;;;;;;;-147.86;100.00;48456.44;105263;1263;71558;-45
2023/11/24 07:51:12;;;;;;;25.30;4.20;;;;;;;-147.86;100.00;48452.51;105213;1263;59740;-45
2023/11/24 07:53:40;;;;;;;9.60;3.40;;;;;;;-147.86;100.00;48460.36;105165;1263;60311;-43
2023/11/24 07:56:11;;;;;;;75.10;9.20;;;;;;;-147.86;100.00;48473.29;105187;1263;73034;-47
2023/11/24 07:58:39;;;;;;;29.10;5.00;;;;;;;-147.86;100.00;48446.24;105213;1263;65341;-48
2023/11/24 08:01:07;;;;;;;87.00;6.90;;;;;;;-147.86;100.00;48458.39;105216;1263;72701;-42
2023/11/24 08:03:35;;;;;;;40.70;5.00;;;;;;;-147.86;100.00;48455.65;105139;1267;59883;-45
2023/11/24 08:06:07;;;;;;;58.80;5.90;;;;;;;-147.86;100.00;48462.32;105237;1262;59621;-42
2023/11/24 08:08:35;;;;;;;81.20;7.60;;;;;;;-147.86;100.00;48457.22;105183;1267;73827;-45
2023/11/24 08:11:06;;;;;;;7.50;3.30;;;;;;;-147.86;100.00;48458.01;105189;1267;63724;-45
2023/11/24 08:13:33;;;;;;;5.20;3.20;;;;;;;-147.86;100.00;48436.05;105182;1263;72674;-42
2023/11/24 08:16:03;;;;;;;5.50;3.30;;;;;;;-147.86;100.00;48439.97;105209;1263;59750;-45
2023/11/24 08:18:31;;;;;;;7.40;3.30;;;;;;;-147.86;100.00;48455.26;105213;1267;59625;-45
2023/11/24 08:21:01;;;;;;;6.30;4.00;;;;;;;-147.86;100.00;48453.30;105155;1263;71762;-46
2023/11/24 08:23:30;;;;;;;26.80;4.30;;;;;;;-147.86;100.00;48458.01;105179;1262;63920;-47
2023/11/24 08:26:03;;;;;;;33.20;4.60;;;;;;;-147.86;100.00;48428.99;105203;1264;71688;-45
2023/11/24 08:28:31;;;;;;;14.00;4.00;;;;;;;-147.86;100.00;48424.29;105174;1263;59628;-46
2023/11/24 08:31:00;;;;;;;31.20;5.20;;;;;;;-147.86;100.00;48425.85;105202;1267;59808;-47
2023/11/24 08:33:28;;;;;;;56.30;5.50;;;;;;;-147.86;100.00;48407.82;104998;1267;73324;-46
2023/11/24 08:35:57;;;;;;;17.50;4.10;;;;;;;-147.86;100.00;48416.84;105118;1263;64160;-49
2023/11/24 08:38:24;;;;;;;21.70;3.60;;;;;;;-147.86;100.00;48412.91;104973;1263;71485;-45
2023/11/24 08:40:52;;;;;;;16.40;4.00;;;;;;;-147.86;100.00;48385.46;104997;1263;59673;-50
2023/11/24 08:43:21;;;;;;;52.40;5.70;;;;;;;-147.86;100.00;48386.65;105088;1264;59644;-48
2023/11/24 08:45:51;;;;;;;18.60;3.90;;;;;;;-147.86;100.00;48397.62;105058;1263;72608;-46
2023/11/24 08:48:19;;;;;;;20.30;3.50;;;;;;;-147.86;100.00;48395.66;105025;1263;63969;-47
2023/11/24 08:50:50;;;;;;;22.50;4.20;;;;;;;-147.86;100.00;48383.51;105066;1263;71688;-42
2023/11/24 08:53:19;;;;;;;7.00;3.60;;;;;;;-147.86;100.00;48386.64;105045;1267;59734;-44
2023/11/24 08:55:47;;;;;;;54.10;5.30;;;;;;;-147.86;100.00;48401.15;105203;1267;59550;-46
2023/11/24 08:58:15;;;;;;;24.10;3.90;;;;;;;-147.86;100.00;48382.72;105167;1267;73014;-42
2023/11/24 09:00:46;;;;;;;65.90;6.60;;;;;;;-147.86;100.00;48403.90;105162;1267;65155;-47
2023/11/24 09:03:17;;;;;;;8.30;3.40;;;;;;;-147.86;100.00;48395.27;105222;1264;71286;-44
2023/11/24 09:05:45;;;;;;;13.20;3.80;;;;;;;-147.86;100.00;48385.86;105197;1263;59891;-49
2023/11/24 09:08:13;;;;;;;33.50;3.90;;;;;;;-147.86;100.00;48367.43;105252;1266;59690;-49
2023/11/24 09:10:46;;;;;;;55.50;4.90;;;;;;;-147.86;100.00;48391.35;105249;1263;71636;-50
2023/11/24 09:13:14;;;;;;;27.60;3.60;;;;;;;-147.86;100.00;48368.21;105211;1266;65119;-46
2023/11/24 09:15:43;;;;;;;83.00;6.10;;;;;;;-147.86;100.00;48373.31;105240;1263;72638;-49
2023/11/24 09:18:12;;;;;;;94.70;7.00;;;;;;;-147.86;100.00;48394.49;105203;1266;60735;-47
2023/11/24 09:20:41;;;;;;;42.60;4.40;;;;;;;-147.86;100.00;48380.37;105222;1263;59956;-45
2023/11/24 09:23:09;;;;;;;44.10;7.20;;;;;;;-147.86;100.00;48393.70;105209;1263;71757;-45
2023/11/24 09:25:37;;;;;;;47.60;4.40;;;;;;;-147.86;100.00;48374.09;105216;1262;63935;-43
2023/11/24 09:28:05;;;;;;;64.00;6.40;;;;;;;-147.86;100.00;48374.10;105187;1267;72983;-42
2023/11/24 09:30:33;;;;;;;33.30;3.80;;;;;;;-147.86;100.00;48379.98;105206;1263;59667;-45
2023/11/24 09:33:04;;;;;;;10.40;3.10;;;;;;;-147.86;100.00;48379.59;105157;1263;61868;-46
2023/11/24 09:35:33;;;;;;;25.80;4.00;;;;;;;-147.86;100.00;48376.84;105244;1262;70563;-47
2023/11/24 09:38:06;;;;;;;44.70;5.80;;;;;;;-147.86;100.00;48364.69;105207;1262;65232;-46
2023/11/24 09:40:37;;;;;;;52.80;7.60;;;;;;;-147.86;100.00;48385.47;105203;1263;72599;-46
2023/11/24 09:43:05;;;;;;;93.60;7.70;;;;;;;-147.86;100.00;48377.63;105207;1264;60526;-46
2023/11/24 09:45:34;;;;;;;50.40;5.40;;;;;;;-147.86;100.00;48373.31;105168;1263;60793;-43
2023/11/24 09:48:04;;;;;;;19.80;3.80;;;;;;;-147.86;100.00;48374.09;105214;1267;73443;-43
2023/11/24 09:50:34;;;;;;;20.10;4.30;;;;;;;-147.86;100.00;48377.23;105193;1263;64261;-46
2023/11/24 09:53:02;;;;;;;23.10;4.30;;;;;;;-147.86;100.00;48386.25;105257;1266;72998;-46
2023/11/24 09:55:30;;;;;;;2.80;2.60;;;;;;;-147.86;100.00;48383.11;105166;1264;59769;-46
2023/11/24 09:57:59;;;;;;;6.60;3.10;;;;;;;-147.86;100.00;48385.47;105170;1264;59555;-45
2023/11/24 10:00:27;;;;;;;3.80;3.00;;;;;;;-147.86;100.00;48370.57;105070;1267;72678;-46
2023/11/24 10:03:02;;;;;;;5.20;2.90;;;;;;;-147.86;100.00;48381.54;104847;1268;65408;-47
2023/11/24 10:05:31;;;;;;;10.00;3.00;;;;;;;-147.86;100.00;48389.39;104844;1262;72922;-44
2023/11/24 10:07:59;;;;;;;3.70;2.50;;;;;;;-147.86;100.00;48389.39;105041;1266;60547;-47
2023/11/24 10:10:27;;;;;;;3.30;2.80;;;;;;;-147.86;100.00;48372.14;105214;1267;59561;-45
2023/11/24 10:12:59;;;;;;;3.70;3.00;;;;;;;-147.86;100.00;48387.82;105213;1263;71805;-49
2023/11/24 10:15:30;;;;;;;4.10;2.80;;;;;;;-147.86;100.00;48380.37;105232;1263;64077;-49
2023/11/24 10:17:58;;;;;;;7.30;2.90;;;;;;;-147.86;100.00;48387.04;105198;1266;74075;-47
2023/11/24 10:20:32;;;;;;;3.90;2.60;;;;;;;-147.86;100.00;48379.98;105190;1267;60322;-45
2023/11/24 10:23:00;;;;;;;3.40;2.60;;;;;;;-147.86;100.00;48388.21;105203;1263;60830;-43
2023/11/24 10:25:29;;;;;;;3.80;2.90;;;;;;;-147.86;100.00;48367.04;105175;1263;71758;-45
2023/11/24 10:28:05;;;;;;;5.10;2.70;;;;;;;-147.86;100.00;48380.37;105019;1263;66023;-44
2023/11/24 10:30:36;;;;;;;;;;;;;;;-147.86;100.00;48359.20;105223;1263;75546;-46
2023/11/24 10:33:04;;;;;;;2.60;2.40;;;;;;;-147.86;100.00;48379.98;105205;1266;60390;-47
2023/11/24 10:35:34;;;;;;;2.50;2.30;;;;;;;-147.86;100.00;48379.98;105205;1267;59628;-45
2023/11/24 10:38:02;;;;;;;3.10;2.70;;;;;;;-147.86;100.00;48369.00;105190;1266;71111;-43
2023/11/24 10:40:31;;;;;;;4.50;2.40;;;;;;;-147.86;100.00;48375.27;105080;1268;65748;-42
2023/11/24 10:42:59;;;;;;;2.60;2.30;;;;;;;-147.86;100.00;48374.88;105183;1263;71891;-45
2023/11/24 10:45:30;;;;;;;2.90;2.70;;;;;;;-147.86;100.00;48372.53;105174;1263;60148;-46
2023/11/24 10:48:14;;;;;;;2.70;2.30;;;;;;;-147.86;100.00;48363.12;105181;1266;59702;-46
2023/11/24 10:50:47;;;;;;;2.10;2.00;;;;;;;-147.86;100.00;48376.45;105229;1262;71960;-43
2023/11/24 10:53:29;;;;;;;3.20;2.50;;;;;;;-147.86;100.00;48388.99;105277;1263;66472;-43
2023/11/24 10:55:56;;;;;;;2.70;2.50;;;;;;;-147.86;100.00;48378.02;105171;1263;72639;-44
2023/11/24 10:58:25;;;;;;;4.00;2.50;;;;;;;-147.86;100.00;48375.27;105124;1265;60936;-43
2023/11/24 11:00:53;;;;;;;2.90;2.60;;;;;;;-147.86;100.00;48376.84;104872;1263;60333;-44
2023/11/24 11:03:21;;;;;;;4.20;2.90;;;;;;;-147.86;100.00;48382.72;105166;1266;72562;-46